createdAt,value
2023-12-16T00:00:55.913Z,7.65
2023-12-16T00:04:59.669Z,7.64
2023-12-16T00:09:04.368Z,7.59
2023-12-16T00:13:07.623Z,7.56
2023-12-16T00:17:11.193Z,7.61
2023-12-16T00:21:14.529Z,7.58
2023-12-16T00:25:19.437Z,7.60
2023-12-16T00:29:22.682Z,7.56
2023-12-16T00:33:25.971Z,7.55
2023-12-16T00:37:29.292Z,7.57
2023-12-16T00:41:33.872Z,7.52
2023-12-16T00:45:37.101Z,7.49
2023-12-16T00:49:40.301Z,7.47
2023-12-16T00:53:43.559Z,7.48
2023-12-16T00:57:47.983Z,7.45
2023-12-16T01:01:51.314Z,7.56
2023-12-16T01:05:54.879Z,7.53
2023-12-16T01:09:58.227Z,7.52
2023-12-16T01:14:03.118Z,7.52
2023-12-16T01:18:06.232Z,7.47
2023-12-16T01:22:09.687Z,7.52
2023-12-16T01:26:12.968Z,7.55
2023-12-16T01:30:17.727Z,7.55
2023-12-16T01:34:21.134Z,7.59
2023-12-16T01:38:24.723Z,7.56
2023-12-16T01:42:28.392Z,7.59
2023-12-16T01:46:34.543Z,7.57
2023-12-16T01:50:37.938Z,7.54
2023-12-16T01:54:41.139Z,7.51
2023-12-16T01:58:44.462Z,7.52
2023-12-16T02:02:49.316Z,7.52
2023-12-16T02:06:52.542Z,7.51
2023-12-16T02:10:55.908Z,7.53
2023-12-16T02:14:58.938Z,7.51
2023-12-16T02:19:03.994Z,7.52
2023-12-16T02:23:08.022Z,7.53
2023-12-16T02:27:12.780Z,7.52
2023-12-16T02:31:15.921Z,7.54
2023-12-16T02:35:19.508Z,7.48
2023-12-16T02:39:22.575Z,7.53
2023-12-16T02:43:27.009Z,7.53
2023-12-16T02:47:30.174Z,7.54
2023-12-16T02:51:33.639Z,7.53
2023-12-16T02:55:36.762Z,7.53
2023-12-16T02:59:41.426Z,7.57
2023-12-16T03:03:44.940Z,7.54
2023-12-16T03:07:48.140Z,7.58
2023-12-16T03:11:52.026Z,7.59
2023-12-16T03:15:56.881Z,7.53
2023-12-16T03:20:00.258Z,7.53
2023-12-16T03:24:06.083Z,7.51
2023-12-16T03:28:09.206Z,7.50
2023-12-16T03:32:13.924Z,7.48
2023-12-16T03:36:17.196Z,7.49
2023-12-16T03:40:20.759Z,7.54
2023-12-16T03:44:24.537Z,7.52
2023-12-16T03:48:29.170Z,7.52
2023-12-16T03:52:32.567Z,7.53
2023-12-16T03:56:35.574Z,7.52
2023-12-16T04:00:38.698Z,7.48
2023-12-16T04:04:45.468Z,7.47
2023-12-16T04:08:48.537Z,7.45
2023-12-16T04:12:51.511Z,7.39
2023-12-16T04:16:54.868Z,7.30
2023-12-16T04:20:59.314Z,7.28
2023-12-16T04:25:10.631Z,7.26
2023-12-16T04:29:13.993Z,7.33
2023-12-16T04:33:17.283Z,7.31
2023-12-16T04:37:21.742Z,7.37
2023-12-16T04:41:24.733Z,7.37
2023-12-16T04:45:28.087Z,7.40
2023-12-16T04:49:31.418Z,7.43
2023-12-16T04:53:35.899Z,7.46
2023-12-16T04:57:39.752Z,7.49
2023-12-16T05:01:43.330Z,7.45
2023-12-16T05:05:46.541Z,7.44
2023-12-16T05:09:51.495Z,7.44
2023-12-16T05:13:54.659Z,7.53
2023-12-16T05:17:57.766Z,7.59
2023-12-16T05:22:00.892Z,7.59
2023-12-16T05:26:05.823Z,7.56
2023-12-16T05:30:10.724Z,7.54
2023-12-16T05:34:14.600Z,7.61
2023-12-16T05:38:18.257Z,7.60
2023-12-16T05:42:22.649Z,7.61
2023-12-16T05:46:25.647Z,7.62
2023-12-16T05:50:28.834Z,7.66
2023-12-16T05:54:32.514Z,7.65
2023-12-16T05:58:37.012Z,7.61
2023-12-16T06:02:40.181Z,7.64
2023-12-16T06:06:43.739Z,7.68
2023-12-16T06:10:46.905Z,7.65
2023-12-16T06:14:51.439Z,7.64
2023-12-16T06:18:54.596Z,7.62
2023-12-16T06:22:58.186Z,7.62
2023-12-16T06:27:01.561Z,7.58
2023-12-16T06:31:06.179Z,7.53
2023-12-16T06:35:10.210Z,7.39
2023-12-16T06:39:13.409Z,7.30
2023-12-16T06:43:17.616Z,7.22
2023-12-16T06:47:22.242Z,7.06
2023-12-16T06:51:25.755Z,6.96
2023-12-16T06:55:31.983Z,6.94
2023-12-16T06:59:35.181Z,6.92
2023-12-16T07:03:40.351Z,6.85
2023-12-16T07:07:44.822Z,6.81
2023-12-16T07:11:50.155Z,6.81
2023-12-16T07:15:53.475Z,6.75
2023-12-16T07:19:58.432Z,6.65
2023-12-16T07:24:01.950Z,6.70
2023-12-16T07:28:05.729Z,6.72
2023-12-16T07:32:09.512Z,6.70
2023-12-16T07:36:14.340Z,6.76
2023-12-16T07:40:18.926Z,6.73
2023-12-16T07:44:24.888Z,6.75
2023-12-16T07:48:28.733Z,6.73
2023-12-16T07:52:33.890Z,6.77
2023-12-16T07:56:37.274Z,6.78
2023-12-16T08:00:41.548Z,6.88
2023-12-16T08:04:44.962Z,7.02
2023-12-16T08:08:49.667Z,7.05
2023-12-16T08:12:53.111Z,6.95
2023-12-16T08:16:56.414Z,6.92
2023-12-16T08:21:01.478Z,6.93
2023-12-16T08:25:08.798Z,7.03
2023-12-16T08:29:13.527Z,7.10
2023-12-16T08:33:17.260Z,7.17
2023-12-16T08:37:25.271Z,7.25
2023-12-16T08:41:30.640Z,7.37
2023-12-16T08:45:33.985Z,7.44
2023-12-16T08:49:37.282Z,7.60
2023-12-16T08:53:40.384Z,7.73
2023-12-16T08:57:45.163Z,7.83
2023-12-16T09:01:48.499Z,7.79
2023-12-16T09:05:51.780Z,7.82
2023-12-16T09:09:55.447Z,7.84
2023-12-16T09:13:59.986Z,7.90
2023-12-16T09:18:03.869Z,8.00
2023-12-16T09:22:07.222Z,7.98
2023-12-16T09:26:10.619Z,8.04
2023-12-16T09:30:15.881Z,8.15
2023-12-16T09:34:19.414Z,8.28
2023-12-16T09:38:22.520Z,8.40
2023-12-16T09:42:27.300Z,8.44
2023-12-16T09:46:32.423Z,8.43
2023-12-16T09:50:35.803Z,8.46
2023-12-16T09:54:40.006Z,8.53
2023-12-16T09:58:44.808Z,8.60
2023-12-16T10:02:53.075Z,8.70
2023-12-16T10:06:57.207Z,8.96
2023-12-16T10:11:11.775Z,9.00
2023-12-16T10:15:29.675Z,9.43
2023-12-16T10:19:35.901Z,9.46
2023-12-16T10:23:39.392Z,9.96
2023-12-16T10:27:44.355Z,10.39
2023-12-16T10:31:47.454Z,10.15
2023-12-16T10:35:53.431Z,10.23
2023-12-16T10:39:56.584Z,10.39
2023-12-16T10:43:59.760Z,11.08
2023-12-16T10:48:04.193Z,10.68
2023-12-16T10:52:12.099Z,10.63
2023-12-16T10:56:19.136Z,10.91
2023-12-16T11:00:24.981Z,10.75
2023-12-16T11:04:31.527Z,11.71
2023-12-16T11:08:37.519Z,10.99
2023-12-16T11:12:41.228Z,10.66
2023-12-16T11:16:51.944Z,10.26
2023-12-16T11:20:56.316Z,10.37
2023-12-16T11:25:02.438Z,10.08
2023-12-16T11:29:05.961Z,10.05
2023-12-16T11:33:09.693Z,10.18
2023-12-16T11:37:13.549Z,10.17
2023-12-16T11:41:40.603Z,10.03
2023-12-16T11:45:46.287Z,10.14
2023-12-16T11:49:50.399Z,10.07
2023-12-16T11:53:53.642Z,10.02
2023-12-16T11:57:57.030Z,10.02
2023-12-16T12:02:03.436Z,9.96
2023-12-16T12:06:07.156Z,9.96
2023-12-16T12:10:11.375Z,9.99
2023-12-16T12:14:14.480Z,9.95
2023-12-16T12:18:19.298Z,9.92
2023-12-16T12:22:22.532Z,9.86
2023-12-16T12:26:25.787Z,9.86
2023-12-16T12:30:29.209Z,9.83
2023-12-16T12:34:33.944Z,9.77
2023-12-16T12:38:37.540Z,9.84
2023-12-16T12:42:48.024Z,9.92
2023-12-16T12:46:51.368Z,9.94
2023-12-16T12:51:04.858Z,9.92
2023-12-16T12:55:08.761Z,9.94
2023-12-16T12:59:57.515Z,9.87
2023-12-16T13:03:36.316Z,9.87
2023-12-16T13:07:41.863Z,9.83
2023-12-16T13:11:45.595Z,9.82
2023-12-16T13:15:54.757Z,9.79
2023-12-16T13:20:00.071Z,9.73
2023-12-16T13:24:04.917Z,9.71
2023-12-16T13:28:08.030Z,9.66
2023-12-16T13:32:11.128Z,9.64
2023-12-16T13:36:33.387Z,9.63
2023-12-16T13:40:43.649Z,9.62
2023-12-16T13:44:52.872Z,9.61
2023-12-16T13:48:56.157Z,9.60
2023-12-16T13:52:59.837Z,9.63
2023-12-16T13:57:05.414Z,9.63
2023-12-16T14:01:09.147Z,9.64
2023-12-16T14:05:12.848Z,9.65
2023-12-16T14:09:16.623Z,9.59
2023-12-16T14:13:21.340Z,9.58
2023-12-16T14:17:24.526Z,9.53
2023-12-16T14:21:28.036Z,9.50
2023-12-16T14:25:31.364Z,9.47
2023-12-16T14:29:36.356Z,9.42
2023-12-16T14:33:39.723Z,9.39
2023-12-16T14:37:43.005Z,9.37
2023-12-16T14:41:46.338Z,9.37
2023-12-16T14:45:51.137Z,9.36
2023-12-16T14:49:54.370Z,9.33
2023-12-16T14:53:57.777Z,9.31
2023-12-16T14:58:01.327Z,9.29
2023-12-16T15:02:06.071Z,9.22
2023-12-16T15:06:17.202Z,9.22
2023-12-16T15:10:26.012Z,9.19
2023-12-16T15:14:29.594Z,9.17
2023-12-16T15:18:34.182Z,9.17
2023-12-16T15:22:37.984Z,9.15
2023-12-16T15:26:41.467Z,9.12
2023-12-16T15:30:44.851Z,9.07
2023-12-16T15:34:49.721Z,9.07
2023-12-16T15:38:53.274Z,9.01
2023-12-16T15:42:56.406Z,8.96
2023-12-16T15:46:59.740Z,8.94
2023-12-16T15:51:05.467Z,8.90
2023-12-16T15:55:08.959Z,8.82
2023-12-16T15:59:12.599Z,8.78
2023-12-16T16:03:15.919Z,8.74
2023-12-16T16:07:20.625Z,8.71
2023-12-16T16:11:24.147Z,8.67
2023-12-16T16:15:27.722Z,8.64
2023-12-16T16:19:31.383Z,8.63
2023-12-16T16:23:36.835Z,8.64
2023-12-16T16:27:40.711Z,8.60
2023-12-16T16:31:44.087Z,8.60
2023-12-16T16:35:47.292Z,8.59
2023-12-16T16:39:51.751Z,8.57
2023-12-16T16:43:56.843Z,8.57
2023-12-16T16:48:03.785Z,8.60
2023-12-16T16:52:07.575Z,8.59
2023-12-16T16:56:12.349Z,8.58
2023-12-16T17:00:20.458Z,8.57
2023-12-16T17:04:24.520Z,8.58
2023-12-16T17:08:27.703Z,8.54
2023-12-16T17:12:32.432Z,8.53
2023-12-16T17:16:35.615Z,8.54
2023-12-16T17:20:39.082Z,8.55
2023-12-16T17:24:42.512Z,8.58
2023-12-16T17:28:47.906Z,8.60
2023-12-16T17:32:52.595Z,8.60
2023-12-16T17:36:55.970Z,8.61
2023-12-16T17:40:58.984Z,8.64
2023-12-16T17:45:03.526Z,8.66
2023-12-16T17:49:06.905Z,8.69
2023-12-16T17:53:11.334Z,8.72
2023-12-16T17:57:14.790Z,8.75
2023-12-16T18:01:19.628Z,8.71
2023-12-16T18:05:23.470Z,8.68
2023-12-16T18:09:27.361Z,8.62
2023-12-16T18:13:30.923Z,8.57
2023-12-16T18:17:36.556Z,8.55
2023-12-16T18:21:40.120Z,8.53
2023-12-16T18:25:43.453Z,8.55
2023-12-16T18:29:46.800Z,8.52
2023-12-16T18:33:51.309Z,8.54
2023-12-16T18:37:54.661Z,8.50
2023-12-16T18:41:57.662Z,8.54
2023-12-16T18:46:00.735Z,8.55
2023-12-16T18:50:05.707Z,8.57
2023-12-16T18:54:12.122Z,8.54
2023-12-16T18:58:15.370Z,8.54
2023-12-16T19:02:18.423Z,8.54
2023-12-16T19:06:23.066Z,8.52
2023-12-16T19:10:27.405Z,8.51
2023-12-16T19:14:32.545Z,8.51
2023-12-16T19:18:36.179Z,8.50
2023-12-16T19:22:40.796Z,8.49
2023-12-16T19:26:44.202Z,8.48
2023-12-16T19:30:47.912Z,8.48
2023-12-16T19:34:51.447Z,8.44
2023-12-16T19:38:56.771Z,8.46
2023-12-16T19:42:59.849Z,8.46
2023-12-16T19:47:03.490Z,8.47
2023-12-16T19:51:07.103Z,8.46
2023-12-16T19:55:12.780Z,8.45
2023-12-16T19:59:16.006Z,8.47
2023-12-16T20:03:22.690Z,8.47
2023-12-16T20:07:27.321Z,8.49
2023-12-16T20:11:32.996Z,8.52
2023-12-16T20:15:36.301Z,8.53
2023-12-16T20:19:42.722Z,8.56
2023-12-16T20:23:46.495Z,8.58
2023-12-16T20:27:53.715Z,8.60
2023-12-16T20:31:57.097Z,8.65
2023-12-16T20:36:00.543Z,8.61
2023-12-16T20:40:21.844Z,8.64
2023-12-16T20:44:26.967Z,8.62
2023-12-16T20:48:33.687Z,8.62
2023-12-16T20:52:38.118Z,8.61
2023-12-16T20:56:42.901Z,8.62
2023-12-16T21:00:47.730Z,8.60
2023-12-16T21:04:50.848Z,8.57
2023-12-16T21:08:54.006Z,8.57
2023-12-16T21:12:57.610Z,8.55
2023-12-16T21:17:02.087Z,8.54
2023-12-16T21:21:05.342Z,8.52
2023-12-16T21:25:10.171Z,8.54
2023-12-16T21:29:13.728Z,8.50
2023-12-16T21:33:24.528Z,8.46
2023-12-16T21:37:28.604Z,8.45
2023-12-16T21:41:32.087Z,8.41
2023-12-16T21:45:35.239Z,8.37
2023-12-16T21:49:40.014Z,8.32
2023-12-16T21:53:43.413Z,8.27
2023-12-16T21:57:46.481Z,8.23
2023-12-16T22:01:49.703Z,8.22
2023-12-16T22:05:54.205Z,8.21
2023-12-16T22:09:57.532Z,8.19
2023-12-16T22:14:01.214Z,8.17
2023-12-16T22:18:04.408Z,8.14
2023-12-16T22:22:08.923Z,8.14
2023-12-16T22:26:12.480Z,8.11
2023-12-16T22:30:17.074Z,8.08
2023-12-16T22:34:20.259Z,8.05
2023-12-16T22:38:25.056Z,8.02
2023-12-16T22:42:28.154Z,8.03
2023-12-16T22:46:32.217Z,8.04
2023-12-16T22:50:35.664Z,8.01
2023-12-16T22:54:40.239Z,8.00
2023-12-16T22:58:43.316Z,7.98
2023-12-16T23:02:46.694Z,7.98
2023-12-16T23:06:49.785Z,7.98
2023-12-16T23:10:54.420Z,7.97
2023-12-16T23:14:57.450Z,7.98
2023-12-16T23:19:01.168Z,7.97
2023-12-16T23:23:04.445Z,7.97
2023-12-16T23:27:09.311Z,8.00
2023-12-16T23:31:15.909Z,7.98
2023-12-16T23:35:19.571Z,7.98
2023-12-16T23:39:22.677Z,7.99
2023-12-16T23:43:27.123Z,7.97
2023-12-16T23:47:30.438Z,7.99
2023-12-16T23:51:33.778Z,7.99
2023-12-16T23:55:37.022Z,8.00
2023-12-16T23:59:41.490Z,7.96
